Time;durP1;ratioP1;P1;durP2;ratioP2;P2;SDS_P1;SDS_P2;PMS_P1;PMS_P2;Temp;Humidity;BMP_temperature;BMP_pressure;BME280_temperature;BME280_humidity;BME280_pressure;Samples;Min_cycle;Max_cycle;Signal;HPM_P1;HPM_P2
2022/04/10 00:00:03;;;;;;;9.75;2.40;;;3.60;99.90;;;;;;6255212;22;20019;-90
2022/04/10 00:02:29;;;;;;;12.90;2.10;;;3.60;99.90;;;;;;6255264;22;20125;-92
2022/04/10 00:04:54;;;;;;;13.27;2.67;;;3.60;99.90;;;;;;6282185;22;20023;-91
2022/04/10 00:07:51;;;;;;;12.13;2.40;;;3.60;99.90;;;;;;6259746;22;20398;-91
2022/04/10 00:18:31;;;;;;;13.65;2.38;;;3.40;99.90;;;;;;6286267;22;20353;-90
2022/04/10 00:23:33;;;;;;;12.45;2.08;;;3.30;99.90;;;;;;6278584;22;20067;-94
2022/04/10 00:25:58;;;;;;;17.98;2.88;;;3.30;99.90;;;;;;6228396;23;20076;-90
2022/04/10 00:28:24;;;;;;;16.45;3.03;;;3.30;99.90;;;;;;6206355;23;20013;-92
2022/04/10 00:30:50;;;;;;;16.70;2.97;;;3.30;99.90;;;;;;6207321;23;20039;-90
2022/04/10 00:35:54;;;;;;;21.48;2.95;;;3.30;99.90;;;;;;6236738;22;20024;-91
2022/04/10 00:38:20;;;;;;;13.75;2.38;;;3.30;99.90;;;;;;6176836;23;20028;-92
2022/04/10 00:40:46;;;;;;;12.80;2.55;;;3.20;99.90;;;;;;6196380;23;20026;-92
2022/04/10 00:43:11;;;;;;;13.00;2.43;;;3.20;99.90;;;;;;6195843;23;20462;-94
2022/04/10 00:45:37;;;;;;;13.82;2.22;;;3.20;99.90;;;;;;6196161;23;20066;-94
2022/04/10 00:48:03;;;;;;;13.37;2.60;;;3.20;99.90;;;;;;6196265;23;20012;-92
2022/04/10 00:50:29;;;;;;;19.80;2.40;;;3.20;99.90;;;;;;6196678;23;20051;-93
2022/04/10 00:53:01;;;;;;;15.13;2.17;;;3.20;99.90;;;;;;6195999;23;20020;-94
2022/04/10 00:55:35;;;;;;;13.40;2.30;;;3.20;99.90;;;;;;6202502;23;20016;-91
2022/04/10 01:00:36;;;;;;;16.75;2.75;;;3.10;99.90;;;;;;6284004;22;20030;-91
2022/04/10 01:03:05;;;;;;;12.98;2.55;;;3.00;99.90;;;;;;6258788;22;20041;-91
2022/04/10 01:05:42;;;;;;;13.30;2.97;;;3.00;99.90;;;;;;6258553;22;20094;-92
2022/04/10 01:08:33;;;;;;;22.27;3.13;;;3.10;99.90;;;;;;6256555;22;20084;-91
2022/04/10 01:11:11;;;;;;;14.07;2.50;;;3.00;99.90;;;;;;6266365;22;20077;-91
2022/04/10 01:13:47;;;;;;;19.88;3.03;;;3.00;99.90;;;;;;6258505;22;20019;-94
2022/04/10 01:16:16;;;;;;;18.73;2.42;;;3.00;99.90;;;;;;6258015;22;20022;-92
2022/04/10 01:18:43;;;;;;;20.25;2.55;;;3.00;99.90;;;;;;6257690;22;20030;-91
2022/04/10 01:21:15;;;;;;;16.73;2.92;;;3.00;99.90;;;;;;6258989;22;20015;-92
2022/04/10 01:23:43;;;;;;;16.58;2.60;;;3.00;99.90;;;;;;6258552;22;20094;-93
2022/04/10 01:26:08;;;;;;;17.13;2.60;;;3.00;99.90;;;;;;6256354;22;20019;-92
2022/04/10 01:41:37;;;;;;;20.50;2.70;;;2.90;99.90;;;;;;6198548;23;20026;-91
2022/04/10 01:44:05;;;;;;;17.75;2.58;;;2.90;99.90;;;;;;6196586;23;20528;-91
2022/04/10 01:46:32;;;;;;;21.08;3.20;;;2.90;99.90;;;;;;6196498;23;20023;-91
2022/04/10 01:48:58;;;;;;;14.10;2.85;;;2.90;99.90;;;;;;6195507;23;20088;-90
2022/04/10 01:51:24;;;;;;;14.48;2.15;;;2.90;99.90;;;;;;6195202;23;20020;-91
2022/04/10 01:53:52;;;;;;;17.95;2.40;;;2.90;99.90;;;;;;6197473;23;20453;-91
2022/04/10 01:56:17;;;;;;;14.73;2.58;;;2.90;99.90;;;;;;6223766;23;20377;-89
2022/04/10 01:58:45;;;;;;;17.05;2.88;;;2.90;99.90;;;;;;6198515;23;20027;-90
2022/04/10 02:01:12;;;;;;;10.18;2.10;;;2.90;99.90;;;;;;6199128;23;20039;-89
2022/04/10 02:03:39;;;;;;;13.15;2.40;;;2.90;99.90;;;;;;6197414;23;20407;-87
2022/04/10 02:06:14;;;;;;;14.70;2.70;;;2.90;99.90;;;;;;6220641;23;20016;-90
2022/04/10 02:08:42;;;;;;;19.20;2.70;;;3.00;99.90;;;;;;6194953;23;20017;-89
2022/04/10 02:11:16;;;;;;;15.60;2.20;;;3.00;99.90;;;;;;6194932;23;20074;-92
2022/04/10 02:13:43;;;;;;;14.82;2.60;;;3.00;99.90;;;;;;6194889;23;20016;-90
2022/04/10 02:16:16;;;;;;;15.20;2.40;;;3.00;99.90;;;;;;6195076;23;20349;-88
2022/04/10 02:18:43;;;;;;;16.77;2.55;;;3.10;99.90;;;;;;6194828;23;20027;-89
2022/04/10 02:21:09;;;;;;;17.02;2.35;;;3.10;99.90;;;;;;6194820;23;20537;-90
2022/04/10 02:23:35;;;;;;;15.98;2.63;;;3.10;99.90;;;;;;6194892;23;20023;-88
2022/04/10 02:26:02;;;;;;;15.52;2.70;;;3.10;99.90;;;;;;6219727;23;20021;-90
2022/04/10 02:28:28;;;;;;;16.63;2.30;;;3.10;99.90;;;;;;6219562;23;20027;-90
2022/04/10 02:30:53;;;;;;;15.27;2.50;;;3.10;99.90;;;;;;6219860;23;20020;-91
2022/04/10 02:33:19;;;;;;;14.55;2.60;;;3.20;99.90;;;;;;6194841;23;20020;-94
2022/04/10 02:35:45;;;;;;;17.13;2.60;;;3.20;99.90;;;;;;6194837;23;20055;-90
2022/04/10 02:38:11;;;;;;;20.23;3.50;;;3.20;99.90;;;;;;6194651;23;20020;-89
2022/04/10 02:40:37;;;;;;;9.95;2.50;;;3.20;99.90;;;;;;6194404;23;20023;-91
2022/04/10 02:43:03;;;;;;;13.88;2.60;;;3.30;99.90;;;;;;6194718;23;20472;-91
2022/04/10 02:45:29;;;;;;;17.37;2.77;;;3.20;99.90;;;;;;6194622;23;20020;-89
2022/04/10 02:47:54;;;;;;;18.60;3.20;;;3.20;99.90;;;;;;6194701;23;20012;-90
2022/04/10 02:50:20;;;;;;;16.40;2.80;;;3.20;99.90;;;;;;6194896;23;20441;-88
2022/04/10 02:52:48;;;;;;;12.73;2.67;;;3.10;99.90;;;;;;6194848;23;20057;-89
2022/04/10 02:55:14;;;;;;;10.80;2.13;;;3.10;99.90;;;;;;6194743;23;20024;-88
2022/04/10 02:57:40;;;;;;;14.70;2.20;;;3.10;99.90;;;;;;6194713;23;20095;-92
2022/04/10 03:00:07;;;;;;;11.37;2.33;;;3.10;99.90;;;;;;6194695;23;20048;-92
2022/04/10 03:02:33;;;;;;;14.25;1.98;;;3.10;99.90;;;;;;6194702;23;20012;-88
2022/04/10 03:04:59;;;;;;;10.82;2.42;;;3.10;99.90;;;;;;6194596;23;20453;-89
2022/04/10 03:07:24;;;;;;;11.20;1.63;;;3.10;99.90;;;;;;6219533;23;20020;-91
2022/04/10 03:09:50;;;;;;;14.60;2.23;;;3.10;99.90;;;;;;6194297;23;20012;-90
2022/04/10 03:12:16;;;;;;;11.23;1.80;;;3.10;99.90;;;;;;6194623;23;20020;-89
2022/04/10 03:14:42;;;;;;;13.20;2.27;;;3.20;99.90;;;;;;6194532;23;20016;-92
2022/04/10 03:17:08;;;;;;;10.43;3.78;;;3.20;99.90;;;;;;6194557;23;20020;-89
2022/04/10 03:19:33;;;;;;;10.67;1.90;;;3.20;99.90;;;;;;6194505;23;20107;-89
2022/04/10 03:21:59;;;;;;;9.65;1.65;;;3.20;99.90;;;;;;6194362;23;20016;-90
2022/04/10 03:24:25;;;;;;;12.03;1.90;;;3.20;99.90;;;;;;6194413;23;20020;-92
2022/04/10 03:26:51;;;;;;;11.13;1.70;;;3.20;99.90;;;;;;6194369;23;20012;-90
2022/04/10 03:29:17;;;;;;;16.75;2.03;;;3.10;99.90;;;;;;6194261;23;20508;-88
2022/04/10 03:31:42;;;;;;;10.98;1.80;;;3.20;99.90;;;;;;6219406;23;20109;-92
2022/04/10 03:34:08;;;;;;;10.93;2.07;;;3.10;99.90;;;;;;6194361;23;20047;-89
2022/04/10 03:36:34;;;;;;;11.13;2.13;;;3.10;99.90;;;;;;6194547;23;20028;-90
2022/04/10 03:39:00;;;;;;;16.17;2.25;;;3.10;99.90;;;;;;6195594;23;20016;-90
2022/04/10 03:41:26;;;;;;;11.23;1.80;;;3.20;99.90;;;;;;6197732;23;20027;-91
2022/04/10 03:43:52;;;;;;;11.47;1.77;;;3.10;99.90;;;;;;6197991;23;20020;-89
2022/04/10 03:46:18;;;;;;;11.82;1.70;;;3.10;99.90;;;;;;6197263;23;20020;-91
2022/04/10 03:48:43;;;;;;;13.15;2.38;;;3.10;99.90;;;;;;6197639;23;20034;-90
2022/04/10 03:51:09;;;;;;;11.55;1.92;;;3.10;99.90;;;;;;6197151;23;20067;-90
2022/04/10 03:53:35;;;;;;;12.32;1.90;;;3.20;99.90;;;;;;6199895;23;20100;-90
2022/04/10 03:56:02;;;;;;;11.52;1.52;;;3.10;99.90;;;;;;6197739;23;20051;-92
2022/04/10 03:58:28;;;;;;;12.27;1.45;;;3.20;99.90;;;;;;6225960;23;20045;-90
2022/04/10 04:00:53;;;;;;;13.32;1.90;;;3.10;99.90;;;;;;6202237;23;20058;-91
2022/04/10 04:03:19;;;;;;;12.13;2.40;;;3.10;99.90;;;;;;6196942;23;20012;-90
2022/04/10 04:05:45;;;;;;;10.13;1.75;;;3.10;99.90;;;;;;6221683;23;20016;-95
2022/04/10 04:08:10;;;;;;;6.40;1.20;;;3.10;99.90;;;;;;6221474;23;20090;-90
2022/04/10 04:10:36;;;;;;;10.70;1.67;;;3.20;99.90;;;;;;6196724;23;20101;-92
2022/04/10 04:13:02;;;;;;;10.23;1.33;;;3.10;99.90;;;;;;6221369;23;20342;-93
2022/04/10 04:15:28;;;;;;;10.55;1.50;;;3.20;99.90;;;;;;6196823;23;20058;-91
2022/04/10 04:17:53;;;;;;;10.45;1.60;;;3.30;99.90;;;;;;6223017;23;20031;-93
2022/04/10 04:20:19;;;;;;;9.15;1.80;;;3.30;99.90;;;;;;6221957;23;20027;-91
2022/04/10 04:22:45;;;;;;;7.80;1.57;;;3.20;99.90;;;;;;6198068;23;20016;-89
2022/04/10 04:25:11;;;;;;;11.10;1.38;;;3.30;99.90;;;;;;6199866;23;20085;-90
2022/04/10 04:27:38;;;;;;;9.40;1.77;;;3.30;99.90;;;;;;6224801;23;20101;-90
2022/04/10 04:30:05;;;;;;;;;;;3.20;99.90;;;;;;6199938;23;20031;-90
2022/04/10 04:32:30;;;;;;;8.80;1.50;;;3.20;99.90;;;;;;6198821;23;19915;-89
2022/04/10 04:34:56;;;;;;;10.63;1.63;;;3.20;99.90;;;;;;6199343;23;20016;-90
2022/04/10 04:37:21;;;;;;;9.38;1.80;;;3.10;99.90;;;;;;6199729;23;20020;-89
2022/04/10 04:39:48;;;;;;;9.45;1.67;;;3.10;99.90;;;;;;6223975;23;20023;-89
2022/04/10 04:42:14;;;;;;;11.50;1.40;;;3.10;99.90;;;;;;6208867;23;20055;-94
2022/04/10 04:44:39;;;;;;;9.10;1.52;;;3.10;99.90;;;;;;6140978;23;20060;-89
2022/04/10 04:47:05;;;;;;;9.80;1.60;;;3.10;99.90;;;;;;6140445;23;20036;-89
2022/04/10 04:49:31;;;;;;;9.02;1.60;;;3.00;99.90;;;;;;6187734;23;20024;-90
2022/04/10 04:51:57;;;;;;;9.98;1.55;;;3.00;99.90;;;;;;6136334;23;20051;-90
2022/04/10 04:54:22;;;;;;;8.07;1.67;;;3.00;99.90;;;;;;6136528;23;20017;-91
2022/04/10 04:56:48;;;;;;;8.33;1.50;;;2.90;99.90;;;;;;6185327;23;20048;-89
2022/04/10 04:59:14;;;;;;;11.98;1.42;;;2.90;99.90;;;;;;6136139;23;20075;-92
2022/04/10 05:01:43;;;;;;;10.87;1.63;;;2.90;99.90;;;;;;6185899;23;20462;-88
2022/04/10 05:04:28;;;;;;;11.65;2.65;;;2.80;99.90;;;;;;6160814;23;20011;-95
2022/04/10 05:06:53;;;;;;;11.60;1.80;;;2.80;99.90;;;;;;6135515;23;20021;-88
2022/04/10 05:09:19;;;;;;;9.00;1.80;;;2.80;99.90;;;;;;6184770;23;20012;-92
2022/04/10 05:11:45;;;;;;;28.17;2.35;;;2.80;99.90;;;;;;6136045;23;20343;-91
2022/04/10 05:14:11;;;;;;;5.43;1.00;;;2.80;99.90;;;;;;6160487;23;20009;-91
2022/04/10 05:16:36;;;;;;;8.43;1.50;;;2.80;99.90;;;;;;6135981;23;20095;-89
2022/04/10 05:19:02;;;;;;;5.20;1.10;;;2.70;99.90;;;;;;6185252;23;20013;-91
2022/04/10 05:22:21;;;;;;;8.33;1.40;;;2.80;99.90;;;;;;6185182;23;20023;-87
2022/04/10 05:25:05;;;;;;;13.27;1.60;;;2.80;99.90;;;;;;6185780;23;21598;-88
2022/04/10 05:27:31;;;;;;;6.82;1.17;;;2.90;99.90;;;;;;6185222;23;20017;-90
2022/04/10 05:29:57;;;;;;;9.02;1.27;;;2.90;99.90;;;;;;6160178;23;20036;-93
2022/04/10 05:32:22;;;;;;;6.70;2.03;;;2.90;99.90;;;;;;6135902;23;20075;-90
2022/04/10 05:35:04;;;;;;;9.02;1.90;;;2.90;99.90;;;;;;6135895;23;20084;-94
2022/04/10 05:37:30;;;;;;;12.38;1.75;;;2.90;99.90;;;;;;6135961;23;20055;-93
2022/04/10 05:39:56;;;;;;;10.60;1.85;;;2.90;99.90;;;;;;6135862;23;20021;-92
2022/04/10 05:42:21;;;;;;;10.23;1.70;;;3.00;99.90;;;;;;6160305;23;20019;-90
2022/04/10 05:44:47;;;;;;;9.63;1.53;;;3.10;99.90;;;;;;6194860;23;20461;-91
2022/04/10 05:47:13;;;;;;;10.32;1.50;;;3.10;99.90;;;;;;6195040;23;20087;-90
2022/04/10 05:49:38;;;;;;;11.05;1.60;;;3.20;99.90;;;;;;6195087;23;20055;-91
2022/04/10 05:52:04;;;;;;;11.60;1.70;;;3.30;99.90;;;;;;6195485;23;20016;-92
2022/04/10 05:54:30;;;;;;;11.83;1.90;;;3.30;99.90;;;;;;6195683;23;20004;-93
2022/04/10 05:56:56;;;;;;;12.30;2.07;;;3.40;99.90;;;;;;6195443;23;20050;-93
2022/04/10 05:59:22;;;;;;;13.77;1.77;;;3.50;99.90;;;;;;6195501;23;20073;-92
2022/04/10 06:01:48;;;;;;;12.55;2.00;;;3.50;99.90;;;;;;6195289;23;20102;-94
2022/04/10 06:04:13;;;;;;;9.95;1.50;;;3.60;99.90;;;;;;6195060;23;20119;-94
2022/04/10 06:06:39;;;;;;;13.15;1.75;;;3.60;99.90;;;;;;6195494;23;20020;-95
2022/04/10 06:09:05;;;;;;;10.77;1.50;;;3.60;99.90;;;;;;6195190;23;20012;-92
2022/04/10 06:11:30;;;;;;;11.15;1.55;;;3.70;99.90;;;;;;6195287;23;20020;-94
2022/04/10 06:13:56;;;;;;;12.97;1.63;;;3.80;99.90;;;;;;6195160;23;20016;-95
2022/04/10 06:16:22;;;;;;;15.80;1.58;;;3.90;99.90;;;;;;6196210;23;20016;-92
2022/04/10 06:18:48;;;;;;;5.03;1.40;;;3.90;99.90;;;;;;6195793;23;20030;-95
2022/04/10 06:21:13;;;;;;;5.97;1.25;;;3.90;99.90;;;;;;6197135;23;20019;-92
2022/04/10 06:23:39;;;;;;;8.75;1.35;;;3.80;99.90;;;;;;6196537;23;20086;-94
2022/04/10 06:26:05;;;;;;;9.70;1.50;;;3.80;99.90;;;;;;6196298;23;20020;-93
2022/04/10 06:28:31;;;;;;;9.13;1.63;;;3.70;99.90;;;;;;6171908;23;20016;-93
2022/04/10 06:30:56;;;;;;;9.95;1.38;;;3.70;99.90;;;;;;6246650;23;20353;-91
2022/04/10 06:33:22;;;;;;;11.47;1.80;;;3.70;99.90;;;;;;6195591;23;20016;-93
2022/04/10 06:35:48;;;;;;;9.50;2.03;;;3.70;99.90;;;;;;6196581;23;20035;-95
2022/04/10 06:38:13;;;;;;;14.10;2.00;;;3.80;99.90;;;;;;6199649;23;20020;-91
2022/04/10 06:40:39;;;;;;;7.97;2.13;;;4.10;99.90;;;;;;6205009;22;20004;-90
2022/04/10 06:43:07;;;;;;;9.10;1.90;;;4.80;99.90;;;;;;6177500;23;20020;-92
2022/04/10 06:45:35;;;;;;;8.73;1.67;;;5.30;99.90;;;;;;6169917;23;20447;-90
2022/04/10 06:48:02;;;;;;;9.10;1.48;;;5.80;99.90;;;;;;6196518;23;20068;-91
2022/04/10 06:50:29;;;;;;;6.60;1.25;;;6.40;99.90;;;;;;6190768;23;20017;-92
2022/04/10 06:52:55;;;;;;;8.15;1.23;;;6.70;99.90;;;;;;6135881;23;20021;-91
2022/04/10 06:55:20;;;;;;;9.93;1.87;;;7.10;99.90;;;;;;6135487;23;20017;-92
2022/04/10 06:57:46;;;;;;;8.40;1.53;;;7.40;99.90;;;;;;6184419;23;20496;-90
2022/04/10 07:00:13;;;;;;;10.30;1.40;;;7.70;99.90;;;;;;6135086;23;20021;-92
2022/04/10 07:02:38;;;;;;;9.70;1.60;;;7.90;99.90;;;;;;6135610;23;20017;-92
2022/04/10 07:05:05;;;;;;;9.23;1.30;;;8.30;99.90;;;;;;6140134;23;20013;-94
2022/04/10 07:07:31;;;;;;;7.35;1.30;;;8.80;99.90;;;;;;6135685;23;20346;-92
2022/04/10 07:09:59;;;;;;;9.87;1.80;;;8.80;99.90;;;;;;6135786;23;20013;-93
2022/04/10 07:12:25;;;;;;;6.90;1.45;;;8.40;99.90;;;;;;6135762;23;20021;-92
2022/04/10 07:14:51;;;;;;;8.05;1.65;;;8.00;99.90;;;;;;6139303;23;20005;-91
2022/04/10 07:17:17;;;;;;;9.97;1.70;;;7.60;99.90;;;;;;6138900;23;20112;-93
2022/04/10 07:19:42;;;;;;;12.20;1.70;;;7.20;99.90;;;;;;6138005;23;20028;-91
2022/04/10 07:25:12;;;;;;;12.10;1.77;;;6.30;99.90;;;;;;6073678;23;20053;-93
2022/04/10 07:27:38;;;;;;;10.57;1.87;;;6.10;99.90;;;;;;6047073;23;20440;-92
2022/04/10 07:30:04;;;;;;;9.17;1.93;;;6.30;99.90;;;;;;6097667;23;20025;-91
2022/04/10 07:32:30;;;;;;;10.88;2.00;;;6.80;99.90;;;;;;6184242;23;20017;-93
2022/04/10 07:34:56;;;;;;;14.43;2.03;;;7.40;99.90;;;;;;6137410;23;20017;-91
2022/04/10 07:37:21;;;;;;;14.00;1.87;;;7.80;99.90;;;;;;6137479;23;20331;-91
2022/04/10 07:39:47;;;;;;;14.17;1.83;;;8.10;99.90;;;;;;6186525;23;20350;-90
2022/04/10 07:42:13;;;;;;;11.87;2.17;;;8.20;99.90;;;;;;6186578;23;20017;-92
2022/04/10 07:44:38;;;;;;;10.33;2.07;;;8.20;99.90;;;;;;6155104;23;20063;-91
2022/04/10 07:49:48;;;;;;;14.25;2.13;;;8.00;99.90;;;;;;6186892;23;20478;-93
2022/04/10 07:52:15;;;;;;;5.93;1.10;;;7.70;99.90;;;;;;6137689;23;20021;-91
2022/04/10 07:54:41;;;;;;;8.88;1.20;;;7.50;99.90;;;;;;6137407;23;20025;-92
2022/04/10 07:57:06;;;;;;;8.87;1.37;;;7.30;99.90;;;;;;6137478;23;20127;-94
2022/04/10 07:59:32;;;;;;;11.00;1.30;;;7.10;99.90;;;;;;6161694;23;20017;-91
2022/04/10 08:01:57;;;;;;;7.83;1.00;;;7.00;99.90;;;;;;6137922;23;20036;-92
2022/04/10 08:04:23;;;;;;;10.80;1.43;;;7.00;99.90;;;;;;6137558;23;20021;-92
2022/04/10 08:06:49;;;;;;;23.90;1.93;;;7.00;99.90;;;;;;6137201;23;20462;-91
2022/04/10 08:09:14;;;;;;;14.20;1.60;;;7.00;99.90;;;;;;6137279;23;20017;-93
2022/04/10 08:11:40;;;;;;;7.70;1.50;;;7.00;99.90;;;;;;6138363;23;20378;-93
2022/04/10 08:14:06;;;;;;;11.50;1.80;;;6.90;99.90;;;;;;6142072;23;20295;-93
2022/04/10 08:16:32;;;;;;;14.00;1.70;;;6.90;99.90;;;;;;6187192;23;20054;-91
2022/04/10 08:19:04;;;;;;;17.40;2.63;;;6.90;99.90;;;;;;6137145;23;20025;-93
2022/04/10 08:21:44;;;;;;;12.23;1.75;;;6.90;99.90;;;;;;6104034;23;20022;-94
2022/04/10 08:24:10;;;;;;;12.93;1.50;;;6.90;99.90;;;;;;6174422;23;20087;-89
2022/04/10 08:26:36;;;;;;;12.63;1.60;;;7.00;99.90;;;;;;6135969;23;20078;-90
2022/04/10 08:29:02;;;;;;;12.40;1.60;;;7.00;99.90;;;;;;6160761;23;20024;-91
2022/04/10 08:31:52;;;;;;;12.13;1.63;;;7.00;99.90;;;;;;6160936;23;20021;-89
2022/04/10 08:34:18;;;;;;;10.93;1.60;;;7.00;99.90;;;;;;6159736;23;20347;-88
2022/04/10 08:36:43;;;;;;;11.27;1.60;;;7.10;99.90;;;;;;6136057;23;20025;-85
2022/04/10 08:39:10;;;;;;;8.30;1.20;;;7.20;99.90;;;;;;6160080;23;20013;-87
2022/04/10 08:41:37;;;;;;;9.60;1.77;;;7.10;99.90;;;;;;6135678;23;20021;-85
2022/04/10 08:44:16;;;;;;;;;;;7.10;99.90;;;;;;6195553;23;20438;-90
2022/04/10 08:51:21;;;;;;;10.30;1.60;;;7.20;99.90;;;;;;6154630;23;20016;-84
2022/04/10 08:53:47;;;;;;;10.75;1.42;;;7.20;99.90;;;;;;6129176;23;20029;-86
2022/04/10 08:56:23;;;;;;;9.37;1.40;;;7.20;99.90;;;;;;6129534;23;20017;-88
2022/04/10 08:58:54;;;;;;;10.85;1.90;;;7.20;99.90;;;;;;6105756;23;20256;-89
2022/04/10 09:01:25;;;;;;;10.20;1.40;;;7.20;99.90;;;;;;6129515;23;20371;-87
2022/04/10 09:04:03;;;;;;;7.28;1.33;;;7.30;99.90;;;;;;6105579;23;20014;-87
2022/04/10 09:19:36;;;;;;;5.03;0.90;;;7.60;99.90;;;;;;6283724;22;20023;-92
2022/04/10 09:22:35;;;;;;;8.90;1.33;;;7.50;99.90;;;;;;6256063;22;20019;-91
2022/04/10 09:25:14;;;;;;;7.95;1.08;;;7.50;99.90;;;;;;6257181;22;20023;-87
2022/04/10 09:27:41;;;;;;;5.47;1.00;;;7.60;99.90;;;;;;6255288;22;20015;-87
2022/04/10 09:30:14;;;;;;;7.53;1.00;;;7.60;99.90;;;;;;6281391;22;20023;-89
2022/04/10 09:32:49;;;;;;;9.73;1.80;;;7.70;99.90;;;;;;6281260;22;20015;-87
2022/04/10 09:35:16;;;;;;;9.02;1.77;;;7.80;99.90;;;;;;6280906;22;20444;-88
2022/04/10 09:37:48;;;;;;;8.40;2.03;;;7.80;99.90;;;;;;6280842;22;20023;-89
2022/04/10 09:40:23;;;;;;;12.52;1.63;;;7.90;99.90;;;;;;6255631;22;20355;-88
2022/04/10 09:42:57;;;;;;;8.02;1.23;;;8.00;99.90;;;;;;6281155;22;20390;-89
2022/04/10 09:45:40;;;;;;;9.25;1.38;;;7.90;99.90;;;;;;6281242;22;20065;-89
2022/04/10 09:48:29;;;;;;;8.40;1.65;;;7.90;99.90;;;;;;6255484;22;20215;-89
2022/04/10 09:51:00;;;;;;;8.70;1.75;;;7.90;99.90;;;;;;6281109;22;20011;-89
2022/04/10 09:53:27;;;;;;;5.38;1.05;;;7.70;99.90;;;;;;6281155;22;20051;-89
2022/04/10 09:56:03;;;;;;;9.23;1.35;;;7.70;99.90;;;;;;6255816;22;20094;-89
2022/04/10 09:58:51;;;;;;;5.55;1.25;;;7.80;99.90;;;;;;6281216;22;20018;-91
2022/04/10 10:01:26;;;;;;;5.93;1.13;;;7.90;99.90;;;;;;6255890;22;20054;-91
2022/04/10 10:03:58;;;;;;;10.55;2.50;;;8.00;99.90;;;;;;6256264;22;20089;-92
2022/04/10 10:06:27;;;;;;;6.75;1.10;;;8.00;99.90;;;;;;6256732;22;20020;-91
2022/04/10 10:08:54;;;;;;;7.80;1.52;;;8.10;99.90;;;;;;6256981;22;20086;-90
2022/04/10 10:11:21;;;;;;;8.23;1.27;;;8.20;99.90;;;;;;6255891;22;20018;-89
2022/04/10 10:13:49;;;;;;;7.03;1.40;;;8.30;99.90;;;;;;6255795;22;20015;-91
2022/04/10 10:16:16;;;;;;;8.63;1.20;;;8.40;99.90;;;;;;6255952;22;20015;-92
2022/04/10 10:18:46;;;;;;;6.82;1.30;;;8.50;99.90;;;;;;6255904;22;20015;-91
2022/04/10 10:21:16;;;;;;;8.63;1.13;;;8.60;99.90;;;;;;6280987;22;20432;-91
2022/04/10 10:23:47;;;;;;;9.68;1.35;;;8.60;99.90;;;;;;6281031;22;20025;-92
2022/04/10 10:30:02;;;;;;;10.30;1.20;;;8.60;99.90;;;;;;6281348;22;20019;-92
2022/04/10 10:32:46;;;;;;;8.93;1.42;;;8.50;99.90;;;;;;6256278;22;20249;-92
2022/04/10 10:35:40;;;;;;;5.28;0.75;;;8.60;99.90;;;;;;6255840;22;20019;-90
2022/04/10 10:38:25;;;;;;;6.40;1.55;;;8.70;99.90;;;;;;6255870;22;20388;-91
2022/04/10 10:41:14;;;;;;;8.32;1.00;;;8.80;99.90;;;;;;6256626;22;20015;-94
2022/04/10 10:43:40;;;;;;;7.38;1.10;;;8.90;99.90;;;;;;6255739;22;20054;-92
2022/04/10 10:52:03;;;;;;;4.95;0.80;;;9.20;99.90;;;;;;6244732;22;20032;-90
2022/04/10 10:54:33;;;;;;;7.88;1.17;;;9.30;99.90;;;;;;6209110;23;20021;-91
2022/04/10 11:01:04;;;;;;;9.80;1.35;;;9.30;99.90;;;;;;6185287;23;20135;-91
2022/04/10 11:03:30;;;;;;;5.35;1.00;;;9.30;99.90;;;;;;6220158;23;20047;-91
2022/04/10 11:06:14;;;;;;;7.80;1.50;;;9.30;99.90;;;;;;6245174;23;20024;-90
2022/04/10 11:08:42;;;;;;;5.93;1.20;;;9.50;99.90;;;;;;6219523;23;20016;-91
2022/04/10 11:11:08;;;;;;;7.22;1.05;;;9.50;99.90;;;;;;6244857;22;20024;-90
2022/04/10 11:13:44;;;;;;;10.33;1.43;;;9.50;99.90;;;;;;6219905;23;20016;-95
2022/04/10 11:16:13;;;;;;;5.03;0.90;;;9.30;99.50;;;;;;6219423;23;20391;-93
2022/04/10 11:18:43;;;;;;;7.07;1.02;;;9.20;99.00;;;;;;6245376;23;20039;-89
2022/04/10 11:21:43;;;;;;;10.45;1.40;;;9.20;99.30;;;;;;6218889;23;20027;-92
2022/04/10 11:24:09;;;;;;;9.73;1.80;;;9.40;99.90;;;;;;6218006;23;20020;-92
2022/04/10 11:26:42;;;;;;;10.10;1.33;;;9.50;99.90;;;;;;6217419;23;20012;-92
2022/04/10 11:29:08;;;;;;;7.20;1.08;;;9.40;99.90;;;;;;6218436;23;20016;-90
2022/04/10 11:31:34;;;;;;;7.30;1.37;;;9.40;99.90;;;;;;6219338;23;20019;-89
2022/04/10 11:34:28;;;;;;;10.23;1.30;;;9.30;99.90;;;;;;6219808;23;20255;-90
2022/04/10 11:36:59;;;;;;;10.57;1.30;;;9.10;99.90;;;;;;6218418;23;20012;-90
2022/04/10 11:39:35;;;;;;;7.57;1.38;;;9.10;99.90;;;;;;6217776;23;20102;-90
2022/04/10 11:42:07;;;;;;;7.63;1.33;;;9.30;99.90;;;;;;6218359;23;20070;-91
2022/04/10 11:44:33;;;;;;;5.28;0.73;;;9.40;99.90;;;;;;6218726;23;20008;-90
2022/04/10 11:47:08;;;;;;;4.18;1.00;;;9.60;99.90;;;;;;6218525;23;20099;-91
2022/04/10 11:49:35;;;;;;;7.30;1.10;;;9.70;99.60;;;;;;6218774;23;20013;-89
2022/04/10 11:52:02;;;;;;;5.97;0.80;;;9.70;99.30;;;;;;6219823;23;20024;-90
2022/04/10 11:54:32;;;;;;;7.32;1.10;;;9.80;99.00;;;;;;6244830;23;20098;-91
2022/04/10 11:57:00;;;;;;;10.68;1.15;;;9.90;99.50;;;;;;6219565;23;20016;-90
2022/04/10 11:59:26;;;;;;;7.57;1.13;;;10.00;99.80;;;;;;6219335;23;20016;-90
2022/04/10 12:01:53;;;;;;;;;;;10.00;99.20;;;;;;6220959;23;20099;-92
2022/04/10 12:04:20;;;;;;;7.10;1.35;;;10.10;98.30;;;;;;6221349;23;20329;-92
2022/04/10 12:06:46;;;;;;;9.30;1.30;;;10.20;98.40;;;;;;6221348;23;20071;-93
2022/04/10 12:09:12;;;;;;;5.72;0.85;;;10.20;97.80;;;;;;6221405;23;20103;-91
2022/04/10 12:11:56;;;;;;;6.23;1.20;;;10.20;97.20;;;;;;6222097;23;20055;-94
2022/04/10 12:14:26;;;;;;;5.53;0.80;;;9.90;97.00;;;;;;6222603;23;20351;-90
2022/04/10 12:22:04;;;;;;;7.25;1.38;;;9.90;99.00;;;;;;6277627;22;20024;-89
2022/04/10 12:24:30;;;;;;;8.43;1.50;;;10.00;98.80;;;;;;6277830;22;20024;-91
2022/04/10 12:32:21;;;;;;;7.90;1.23;;;10.00;98.00;;;;;;6278545;22;20020;-94
2022/04/10 12:34:47;;;;;;;6.40;1.30;;;10.10;97.30;;;;;;6251350;22;20027;-92
2022/04/10 12:37:14;;;;;;;9.83;1.50;;;10.10;97.60;;;;;;6277051;22;20054;-90
2022/04/10 12:42:20;;;;;;;8.52;1.63;;;10.10;98.10;;;;;;6246729;22;20434;-91
2022/04/10 12:44:59;;;;;;;8.95;1.38;;;10.10;97.90;;;;;;6221736;23;20029;-92
2022/04/10 12:48:09;;;;;;;5.68;1.30;;;10.10;97.20;;;;;;6221049;23;20450;-93
2022/04/10 12:50:35;;;;;;;7.20;1.00;;;10.10;96.60;;;;;;6240868;23;20099;-94
2022/04/10 12:53:11;;;;;;;6.70;1.10;;;10.10;97.50;;;;;;6220975;23;20048;-95
2022/04/10 12:55:38;;;;;;;8.43;1.40;;;10.20;97.40;;;;;;6221073;23;20016;-94
2022/04/10 12:58:06;;;;;;;5.88;0.90;;;10.30;97.60;;;;;;6221194;23;20044;-94
2022/04/10 13:00:45;;;;;;;6.20;1.40;;;10.30;97.60;;;;;;6221223;23;20020;-94
2022/04/10 13:03:28;;;;;;;6.38;1.00;;;10.30;96.90;;;;;;6220992;23;20018;-93
2022/04/10 13:06:04;;;;;;;5.47;0.90;;;10.30;96.40;;;;;;6221118;23;20070;-93
2022/04/10 13:08:40;;;;;;;8.85;0.98;;;10.30;97.50;;;;;;6221567;23;20094;-89
2022/04/10 13:11:09;;;;;;;8.10;1.30;;;10.20;97.10;;;;;;6222026;23;20095;-95
2022/04/10 13:13:55;;;;;;;6.10;1.10;;;10.20;98.30;;;;;;6221642;23;20012;-93
2022/04/10 13:16:31;;;;;;;6.25;1.00;;;10.20;98.20;;;;;;6220952;23;20099;-91
2022/04/10 14:52:10;;;;;;;8.18;1.40;;;10.00;95.30;;;;;;6244246;22;20063;-93
2022/04/10 14:54:36;;;;;;;4.10;0.80;;;10.10;95.40;;;;;;6194838;23;20024;-93
2022/04/10 14:57:01;;;;;;;6.00;0.90;;;9.90;95.10;;;;;;6220053;23;20020;-93
2022/04/10 14:59:27;;;;;;;8.47;1.27;;;9.80;95.40;;;;;;6218687;23;20031;-93
2022/04/10 15:02:10;;;;;;;6.57;1.40;;;9.80;95.30;;;;;;6220340;23;20247;-92
2022/04/10 15:04:35;;;;;;;6.00;0.85;;;9.70;95.70;;;;;;6219237;23;20398;-92
2022/04/10 15:07:02;;;;;;;4.87;0.80;;;9.70;95.80;;;;;;6217442;23;20074;-89
2022/04/10 15:09:28;;;;;;;;;;;9.60;96.00;;;;;;6219744;23;20016;-92
2022/04/10 15:11:53;;;;;;;6.03;1.10;;;9.50;96.30;;;;;;6270031;22;19915;-88
2022/04/10 15:14:19;;;;;;;6.73;1.10;;;9.40;96.60;;;;;;6244793;22;20020;-90
2022/04/10 15:17:16;;;;;;;6.63;1.03;;;9.30;96.90;;;;;;6246255;23;20012;-93
2022/04/10 15:41:45;;;;;;;5.63;1.00;;;9.30;97.50;;;;;;6258187;22;20032;-90
2022/04/10 15:46:49;;;;;;;8.90;0.98;;;9.20;97.40;;;;;;6284935;22;20026;-91
2022/04/10 15:52:30;;;;;;;6.18;1.42;;;9.10;97.00;;;;;;6267803;22;20452;-91
2022/04/10 15:54:56;;;;;;;4.22;0.80;;;9.00;97.60;;;;;;6252260;22;20322;-93
2022/04/10 15:59:57;;;;;;;9.20;1.90;;;9.00;98.00;;;;;;6278593;22;20039;-90
2022/04/10 16:02:23;;;;;;;5.13;0.93;;;9.00;98.60;;;;;;6251609;22;20395;-93
2022/04/10 16:04:49;;;;;;;4.07;0.90;;;9.10;98.70;;;;;;6227078;22;20008;-95
2022/04/10 16:07:14;;;;;;;6.20;1.03;;;9.10;98.90;;;;;;6227242;22;20338;-95
2022/04/10 16:09:40;;;;;;;2.60;0.63;;;9.20;98.10;;;;;;6227034;22;20011;-93
2022/04/10 16:12:37;;;;;;;6.87;0.83;;;9.10;97.20;;;;;;6226516;22;20094;-92
2022/04/10 16:15:23;;;;;;;3.45;0.70;;;9.10;96.90;;;;;;6254194;22;20015;-95
2022/04/10 16:17:49;;;;;;;3.95;0.80;;;9.10;95.80;;;;;;6235178;22;20026;-96
2022/04/10 16:20:16;;;;;;;6.10;0.93;;;9.10;96.50;;;;;;6235223;22;20020;-96
2022/04/10 16:22:43;;;;;;;4.20;0.68;;;9.10;96.50;;;;;;6259349;22;20016;-96
2022/04/10 16:25:18;;;;;;;3.70;0.70;;;9.20;96.00;;;;;;6237238;22;20445;-93